createdAt,value
2022-09-23T00:01:20.462Z,100.00
2022-09-23T00:03:49.711Z,100.00
2022-09-23T00:06:20.454Z,100.00
2022-09-23T00:08:49.900Z,100.00
2022-09-23T00:11:20.877Z,100.00
2022-09-23T00:13:51.527Z,100.00
2022-09-23T00:16:24.356Z,100.00
2022-09-23T00:18:52.890Z,100.00
2022-09-23T00:21:23.027Z,100.00
2022-09-23T00:23:51.954Z,100.00
2022-09-23T00:26:22.541Z,100.00
2022-09-23T00:28:52.168Z,100.00
2022-09-23T00:31:23.722Z,100.00
2022-09-23T00:33:55.513Z,100.00
2022-09-23T00:36:24.019Z,100.00
2022-09-23T00:38:52.964Z,100.00
2022-09-23T00:41:21.539Z,100.00
2022-09-23T00:43:53.109Z,100.00
2022-09-23T00:46:30.509Z,100.00
2022-09-23T00:49:04.502Z,100.00
2022-09-23T00:51:36.119Z,100.00
2022-09-23T00:54:04.896Z,100.00
2022-09-23T00:56:34.546Z,100.00
2022-09-23T00:59:04.303Z,100.00
2022-09-23T01:01:34.795Z,100.00
2022-09-23T01:04:03.815Z,100.00
2022-09-23T01:06:33.133Z,100.00
2022-09-23T01:09:02.052Z,100.00
2022-09-23T01:11:42.540Z,100.00
2022-09-23T01:14:28.865Z,100.00
2022-09-23T01:17:05.525Z,100.00
2022-09-23T01:19:59.973Z,100.00
2022-09-23T01:22:37.605Z,100.00
2022-09-23T01:25:29.188Z,100.00
2022-09-23T01:28:19.315Z,100.00
2022-09-23T01:30:58.930Z,100.00
2022-09-23T01:33:36.743Z,100.00
2022-09-23T01:36:12.934Z,100.00
2022-09-23T01:38:51.487Z,100.00
2022-09-23T01:41:38.995Z,100.00
2022-09-23T01:44:11.182Z,100.00
2022-09-23T01:46:45.762Z,100.00
2022-09-23T01:49:21.673Z,100.00
2022-09-23T01:51:56.474Z,100.00
2022-09-23T01:54:32.574Z,100.00
2022-09-23T01:57:04.901Z,100.00
2022-09-23T01:59:38.154Z,100.00
2022-09-23T02:02:14.559Z,100.00
2022-09-23T02:04:49.454Z,100.00
2022-09-23T02:07:23.713Z,100.00
2022-09-23T02:09:59.233Z,100.00
2022-09-23T02:12:31.686Z,100.00
2022-09-23T02:15:04.866Z,100.00
2022-09-23T02:17:41.046Z,100.00
2022-09-23T02:20:10.767Z,100.00
2022-09-23T02:22:42.923Z,100.00
2022-09-23T02:25:13.258Z,100.00
2022-09-23T02:27:48.751Z,100.00
2022-09-23T02:30:22.484Z,100.00
2022-09-23T02:32:59.613Z,100.00
2022-09-23T02:35:33.723Z,100.00
2022-09-23T02:38:15.980Z,100.00
2022-09-23T02:40:55.272Z,100.00
2022-09-23T02:43:31.621Z,100.00
2022-09-23T02:46:00.392Z,100.00
2022-09-23T02:48:35.536Z,100.00
2022-09-23T02:51:05.028Z,100.00
2022-09-23T02:53:34.987Z,100.00
2022-09-23T02:56:03.917Z,100.00
2022-09-23T02:58:32.910Z,100.00
2022-09-23T03:01:09.625Z,100.00
2022-09-23T03:03:47.585Z,100.00
2022-09-23T03:06:28.984Z,100.00
2022-09-23T03:09:03.934Z,100.00
2022-09-23T03:11:37.804Z,100.00
2022-09-23T03:14:18.307Z,100.00
2022-09-23T03:16:56.066Z,100.00
2022-09-23T03:19:30.871Z,100.00
2022-09-23T03:22:06.174Z,100.00
2022-09-23T03:24:36.601Z,100.00
2022-09-23T03:27:14.054Z,100.00
2022-09-23T03:29:47.622Z,100.00
2022-09-23T03:32:18.598Z,100.00
2022-09-23T03:34:51.656Z,100.00
2022-09-23T03:37:24.894Z,100.00
2022-09-23T03:39:58.729Z,100.00
2022-09-23T03:42:30.458Z,100.00
2022-09-23T03:45:01.567Z,100.00
2022-09-23T03:47:31.226Z,100.00
2022-09-23T03:50:02.468Z,100.00
2022-09-23T03:52:30.945Z,100.00
2022-09-23T03:54:59.694Z,100.00
2022-09-23T03:57:28.166Z,100.00
2022-09-23T03:59:56.705Z,100.00
2022-09-23T04:02:25.329Z,100.00
2022-09-23T04:04:54.058Z,100.00
2022-09-23T04:07:24.217Z,100.00
2022-09-23T04:09:52.979Z,100.00
2022-09-23T04:12:21.463Z,100.00
2022-09-23T04:14:49.948Z,100.00
2022-09-23T04:17:18.419Z,100.00
2022-09-23T04:19:46.778Z,100.00
2022-09-23T04:22:15.148Z,100.00
2022-09-23T04:24:45.147Z,100.00
2022-09-23T04:27:13.740Z,100.00
2022-09-23T04:29:42.164Z,100.00
2022-09-23T04:32:10.809Z,100.00
2022-09-23T04:34:39.294Z,100.00
2022-09-23T04:37:07.882Z,100.00
2022-09-23T04:39:36.515Z,100.00
2022-09-23T04:42:07.334Z,100.00
2022-09-23T04:44:35.827Z,100.00
2022-09-23T04:47:04.526Z,100.00
2022-09-23T04:49:33.939Z,100.00
2022-09-23T04:52:03.014Z,100.00
2022-09-23T04:54:31.845Z,100.00
2022-09-23T04:57:00.313Z,100.00
2022-09-23T04:59:30.685Z,100.00
2022-09-23T05:01:59.113Z,100.00
2022-09-23T05:04:27.793Z,100.00
2022-09-23T05:06:59.494Z,100.00
2022-09-23T05:09:31.511Z,100.00
2022-09-23T05:12:00.243Z,100.00
2022-09-23T05:14:30.078Z,100.00
2022-09-23T05:16:58.437Z,100.00
2022-09-23T05:19:27.311Z,100.00
2022-09-23T05:21:55.737Z,100.00
2022-09-23T05:24:25.615Z,100.00
2022-09-23T05:26:55.981Z,100.00
2022-09-23T05:29:24.313Z,100.00
2022-09-23T05:31:54.224Z,100.00
2022-09-23T05:34:23.447Z,100.00
2022-09-23T05:36:51.977Z,100.00
2022-09-23T05:39:20.417Z,100.00
2022-09-23T05:41:49.222Z,100.00
2022-09-23T05:44:17.777Z,100.00
2022-09-23T05:46:46.406Z,100.00
2022-09-23T05:49:16.561Z,100.00
2022-09-23T05:51:45.164Z,100.00
2022-09-23T05:54:13.630Z,100.00
2022-09-23T05:56:42.014Z,100.00
2022-09-23T05:59:13.079Z,100.00
2022-09-23T06:01:41.622Z,100.00
2022-09-23T06:04:15.625Z,100.00
2022-09-23T06:06:44.392Z,100.00
2022-09-23T06:09:14.874Z,100.00
2022-09-23T06:11:43.727Z,100.00
2022-09-23T06:14:14.071Z,100.00
2022-09-23T06:16:43.275Z,100.00
2022-09-23T06:19:12.094Z,100.00
2022-09-23T06:21:42.457Z,100.00
2022-09-23T06:24:15.012Z,100.00
2022-09-23T06:26:45.230Z,100.00
2022-09-23T06:29:14.711Z,100.00
2022-09-23T06:31:43.678Z,100.00
2022-09-23T06:34:14.630Z,100.00
2022-09-23T06:36:46.346Z,100.00
2022-09-23T06:39:16.153Z,100.00
2022-09-23T06:41:44.947Z,100.00
2022-09-23T06:44:14.038Z,100.00
2022-09-23T06:46:42.614Z,100.00
2022-09-23T06:49:13.598Z,100.00
2022-09-23T06:51:42.585Z,100.00
2022-09-23T06:54:12.482Z,100.00
2022-09-23T06:56:41.442Z,100.00
2022-09-23T06:59:13.288Z,100.00
2022-09-23T07:01:41.913Z,100.00
2022-09-23T07:04:11.123Z,100.00
2022-09-23T07:06:39.702Z,100.00
2022-09-23T07:09:09.309Z,100.00
2022-09-23T07:11:40.785Z,100.00
2022-09-23T07:14:09.161Z,100.00
2022-09-23T07:16:38.076Z,100.00
2022-09-23T07:19:06.665Z,100.00
2022-09-23T07:21:35.230Z,100.00
2022-09-23T07:24:04.022Z,100.00
2022-09-23T07:26:34.298Z,100.00
2022-09-23T07:29:05.338Z,100.00
2022-09-23T07:31:39.020Z,100.00
2022-09-23T07:34:10.128Z,100.00
2022-09-23T07:36:41.307Z,100.00
2022-09-23T07:39:11.321Z,100.00
2022-09-23T07:41:41.949Z,100.00
2022-09-23T07:44:13.053Z,100.00
2022-09-23T07:46:41.831Z,100.00
2022-09-23T07:49:10.831Z,100.00
2022-09-23T07:51:42.147Z,100.00
2022-09-23T07:54:13.903Z,100.00
2022-09-23T07:56:43.272Z,100.00
2022-09-23T07:59:15.653Z,100.00
2022-09-23T08:01:46.499Z,100.00
2022-09-23T08:04:17.360Z,100.00
2022-09-23T08:06:48.662Z,100.00
2022-09-23T08:09:18.141Z,100.00
2022-09-23T08:11:46.810Z,100.00
2022-09-23T08:14:18.167Z,100.00
2022-09-23T08:16:47.889Z,100.00
2022-09-23T08:19:16.463Z,100.00
2022-09-23T08:21:47.714Z,100.00
2022-09-23T08:24:18.443Z,100.00
2022-09-23T08:26:48.622Z,100.00
2022-09-23T08:29:19.811Z,100.00
2022-09-23T08:31:49.783Z,100.00
2022-09-23T08:34:18.758Z,100.00
2022-09-23T08:36:47.761Z,100.00
2022-09-23T08:39:17.771Z,100.00
2022-09-23T08:41:59.047Z,100.00
2022-09-23T08:44:35.727Z,100.00
2022-09-23T08:47:12.888Z,100.00
2022-09-23T08:49:49.565Z,100.00
2022-09-23T08:52:25.205Z,100.00
2022-09-23T08:54:55.585Z,100.00
2022-09-23T08:57:34.964Z,100.00
2022-09-23T09:00:06.058Z,100.00
2022-09-23T09:02:37.029Z,100.00
2022-09-23T09:05:10.267Z,100.00
2022-09-23T09:07:42.314Z,100.00
2022-09-23T09:10:19.611Z,99.34
2022-09-23T09:12:49.630Z,100.00
2022-09-23T09:15:24.759Z,97.56
2022-09-23T09:18:02.665Z,98.00
2022-09-23T09:20:40.061Z,97.81
2022-09-23T09:23:21.696Z,98.11
2022-09-23T09:25:52.636Z,98.48
2022-09-23T09:28:26.894Z,98.92
2022-09-23T09:30:59.352Z,96.25
2022-09-23T09:33:32.830Z,98.49
2022-09-23T09:36:30.836Z,97.25
2022-09-23T09:39:00.129Z,97.51
2022-09-23T09:41:31.446Z,94.83
2022-09-23T09:44:03.777Z,95.67
2022-09-23T09:46:52.611Z,95.55
2022-09-23T09:49:31.382Z,94.40
2022-09-23T09:52:21.740Z,94.69
2022-09-23T09:54:51.194Z,94.38
2022-09-23T09:57:35.031Z,92.43
2022-09-23T10:00:20.998Z,92.18
2022-09-23T10:02:53.828Z,93.28
2022-09-23T10:05:28.614Z,90.00
2022-09-23T10:07:57.017Z,92.53
2022-09-23T10:10:34.446Z,93.00
2022-09-23T10:13:15.999Z,91.08
2022-09-23T10:15:45.903Z,90.07
2022-09-23T10:18:21.336Z,91.37
2022-09-23T10:20:50.849Z,90.50
2022-09-23T10:23:24.355Z,90.71
2022-09-23T10:26:01.460Z,86.32
2022-09-23T10:28:41.575Z,86.24
2022-09-23T10:31:13.219Z,84.11
2022-09-23T10:33:48.173Z,85.84
2022-09-23T10:36:17.986Z,86.84
2022-09-23T10:38:48.821Z,82.59
2022-09-23T10:41:47.209Z,83.35
2022-09-23T10:44:51.283Z,82.32
2022-09-23T10:47:32.462Z,79.48
2022-09-23T10:50:23.305Z,78.20
2022-09-23T10:53:06.423Z,76.55
2022-09-23T10:55:56.057Z,75.77
2022-09-23T10:58:50.819Z,72.12
2022-09-23T11:01:29.821Z,76.45
2022-09-23T11:04:25.126Z,77.07
2022-09-23T11:07:14.335Z,76.03
2022-09-23T11:10:00.140Z,75.45
2022-09-23T11:12:37.349Z,72.46
2022-09-23T11:15:21.271Z,74.16
2022-09-23T11:18:11.642Z,72.00
2022-09-23T11:20:49.370Z,67.27
2022-09-23T11:23:38.476Z,64.13
2022-09-23T11:26:17.621Z,68.54
2022-09-23T11:29:08.611Z,66.89
2022-09-23T11:31:43.799Z,65.87
2022-09-23T11:34:35.461Z,59.86
2022-09-23T11:37:08.449Z,59.99
2022-09-23T11:39:46.210Z,56.07
2022-09-23T11:42:21.586Z,58.03
2022-09-23T11:44:57.962Z,60.32
2022-09-23T11:47:30.841Z,56.12
2022-09-23T11:50:04.534Z,55.20
2022-09-23T11:52:37.855Z,57.40
2022-09-23T11:55:22.797Z,55.74
2022-09-23T11:57:54.975Z,58.02
2022-09-23T12:00:26.746Z,54.75
2022-09-23T12:03:06.241Z,59.01
2022-09-23T12:05:40.787Z,59.19
2022-09-23T12:08:19.545Z,56.13
2022-09-23T12:10:56.399Z,55.39
2022-09-23T12:13:33.378Z,55.00
2022-09-23T12:16:44.076Z,51.34
2022-09-23T12:19:27.259Z,48.30
2022-09-23T12:22:17.395Z,47.71
2022-09-23T12:24:56.260Z,48.35
2022-09-23T12:27:34.365Z,52.62
2022-09-23T12:30:05.335Z,51.39
2022-09-23T12:32:34.403Z,49.72
2022-09-23T12:35:03.023Z,49.66
2022-09-23T12:37:36.221Z,50.61
2022-09-23T12:40:09.976Z,48.98
2022-09-23T12:42:46.211Z,49.71
2022-09-23T12:45:37.544Z,46.56
2022-09-23T12:48:24.205Z,51.10
2022-09-23T12:50:56.012Z,44.68
2022-09-23T12:53:56.075Z,46.36
2022-09-23T12:56:30.518Z,48.23
2022-09-23T12:59:02.679Z,49.68
2022-09-23T13:01:38.572Z,44.54
2022-09-23T13:04:24.484Z,46.30
2022-09-23T13:07:00.123Z,45.93
2022-09-23T13:09:31.546Z,47.03
2022-09-23T13:12:03.120Z,46.97
2022-09-23T13:14:35.267Z,47.46
2022-09-23T13:17:03.682Z,45.90
2022-09-23T13:19:47.723Z,43.51
2022-09-23T13:22:36.222Z,44.01
2022-09-23T13:25:19.355Z,45.02
2022-09-23T13:27:51.323Z,44.10
2022-09-23T13:30:26.354Z,45.71
2022-09-23T13:33:04.958Z,44.52
2022-09-23T13:35:37.893Z,45.07
2022-09-23T13:38:13.242Z,44.10
2022-09-23T13:40:42.778Z,45.15
2022-09-23T13:43:18.553Z,45.12
2022-09-23T13:45:48.877Z,45.19
2022-09-23T13:48:17.878Z,45.42
2022-09-23T13:50:50.482Z,46.35
2022-09-23T13:53:27.783Z,46.31
2022-09-23T13:56:05.054Z,45.71
2022-09-23T13:58:35.031Z,45.66
2022-09-23T14:01:08.759Z,46.25
2022-09-23T14:03:39.112Z,42.56
2022-09-23T14:06:13.221Z,42.92
2022-09-23T14:08:45.452Z,43.84
2022-09-23T14:11:17.156Z,45.54
2022-09-23T14:13:47.706Z,45.10
2022-09-23T14:16:19.859Z,44.63
2022-09-23T14:18:50.042Z,45.15
2022-09-23T14:21:35.407Z,44.63
2022-09-23T14:24:18.862Z,45.53
2022-09-23T14:26:50.382Z,45.82
2022-09-23T14:29:21.480Z,45.79
2022-09-23T14:31:58.428Z,44.79
2022-09-23T14:34:42.117Z,44.56
2022-09-23T14:37:37.858Z,45.65
2022-09-23T14:40:11.935Z,46.63
2022-09-23T14:42:43.492Z,45.65
2022-09-23T14:45:18.293Z,44.38
2022-09-23T14:47:52.442Z,44.11
2022-09-23T14:50:39.993Z,45.16
2022-09-23T14:53:37.275Z,42.19
2022-09-23T14:56:16.026Z,42.86
2022-09-23T14:58:51.908Z,44.31
2022-09-23T15:01:38.850Z,43.79
2022-09-23T15:04:30.644Z,44.49
2022-09-23T15:07:02.648Z,44.48
2022-09-23T15:09:34.469Z,45.15
2022-09-23T15:12:06.996Z,43.54
2022-09-23T15:14:42.102Z,44.55
2022-09-23T15:17:21.524Z,44.36
2022-09-23T15:19:57.034Z,46.97
2022-09-23T15:22:26.549Z,47.04
2022-09-23T15:24:56.643Z,47.74
2022-09-23T15:27:29.744Z,47.43
2022-09-23T15:30:14.873Z,47.60
2022-09-23T15:32:43.929Z,47.85
2022-09-23T15:35:16.754Z,47.52
2022-09-23T15:37:46.505Z,48.04
2022-09-23T15:40:26.554Z,48.65
2022-09-23T15:42:58.324Z,47.63
2022-09-23T15:45:34.545Z,49.75
2022-09-23T15:48:07.565Z,49.49
2022-09-23T15:50:38.801Z,50.89
2022-09-23T15:53:07.681Z,51.41
2022-09-23T15:55:36.038Z,51.73
2022-09-23T15:58:04.550Z,52.50
2022-09-23T16:00:34.577Z,52.87
2022-09-23T16:03:04.496Z,53.46
2022-09-23T16:05:37.096Z,54.22
2022-09-23T16:08:09.277Z,54.81
2022-09-23T16:10:38.931Z,55.82
2022-09-23T16:13:13.196Z,56.47
2022-09-23T16:15:42.110Z,56.90
2022-09-23T16:18:11.898Z,57.44
2022-09-23T16:20:43.930Z,57.48
2022-09-23T16:23:34.841Z,59.10
2022-09-23T16:26:08.545Z,59.20
2022-09-23T16:28:37.012Z,60.12
2022-09-23T16:31:05.632Z,60.58
2022-09-23T16:33:34.179Z,61.50
2022-09-23T16:36:03.127Z,61.99
2022-09-23T16:38:33.765Z,62.97
2022-09-23T16:41:03.177Z,64.00
2022-09-23T16:43:35.180Z,64.14
2022-09-23T16:46:03.650Z,64.88
2022-09-23T16:48:32.101Z,65.66
2022-09-23T16:51:04.755Z,66.80
2022-09-23T16:53:35.485Z,67.52
2022-09-23T16:56:09.567Z,68.03
2022-09-23T16:58:38.050Z,68.14
2022-09-23T17:01:24.549Z,67.90
2022-09-23T17:03:53.486Z,68.26
2022-09-23T17:06:24.119Z,68.43
2022-09-23T17:08:53.980Z,69.25
2022-09-23T17:11:22.627Z,69.81
2022-09-23T17:13:51.889Z,70.01
2022-09-23T17:16:25.467Z,71.11
2022-09-23T17:18:55.665Z,71.10
2022-09-23T17:21:26.119Z,71.66
2022-09-23T17:23:56.870Z,71.77
2022-09-23T17:26:27.457Z,72.44
2022-09-23T17:28:57.743Z,72.84
2022-09-23T17:31:26.945Z,73.47
2022-09-23T17:33:55.815Z,73.96
2022-09-23T17:36:24.976Z,74.56
2022-09-23T17:38:54.731Z,74.91
2022-09-23T17:41:24.572Z,75.28
2022-09-23T17:43:56.878Z,75.58
2022-09-23T17:46:25.383Z,76.13
2022-09-23T17:48:55.892Z,76.34
2022-09-23T17:51:25.686Z,76.54
2022-09-23T17:53:54.117Z,76.49
2022-09-23T17:56:26.065Z,77.70
2022-09-23T17:58:55.436Z,78.20
2022-09-23T18:01:25.669Z,78.18
2022-09-23T18:03:56.099Z,78.32
2022-09-23T18:06:26.296Z,78.88
2022-09-23T18:08:56.148Z,79.77
2022-09-23T18:11:27.516Z,80.09
2022-09-23T18:13:57.897Z,80.93
2022-09-23T18:16:28.141Z,80.20
2022-09-23T18:18:58.043Z,80.80
2022-09-23T18:21:28.802Z,81.81
2022-09-23T18:24:15.716Z,81.63
2022-09-23T18:26:47.688Z,82.41
2022-09-23T18:29:16.461Z,82.76
2022-09-23T18:31:45.984Z,83.04
2022-09-23T18:34:16.663Z,82.78
2022-09-23T18:36:45.647Z,83.23
2022-09-23T18:39:14.354Z,83.87
2022-09-23T18:41:42.968Z,84.10
2022-09-23T18:44:12.967Z,84.79
2022-09-23T18:46:41.401Z,84.60
2022-09-23T18:49:28.379Z,85.48
2022-09-23T18:51:58.215Z,84.89
2022-09-23T18:54:29.115Z,85.27
2022-09-23T18:56:59.448Z,85.18
2022-09-23T18:59:30.750Z,85.06
2022-09-23T19:01:59.164Z,85.31
2022-09-23T19:04:29.261Z,85.62
2022-09-23T19:06:58.171Z,85.67
2022-09-23T19:09:26.766Z,85.77
2022-09-23T19:11:55.704Z,86.16
2022-09-23T19:14:26.863Z,86.63
2022-09-23T19:16:56.755Z,86.62
2022-09-23T19:19:25.970Z,86.91
2022-09-23T19:21:55.116Z,86.84
2022-09-23T19:24:24.267Z,88.02
2022-09-23T19:26:53.472Z,89.03
2022-09-23T19:29:23.762Z,88.85
2022-09-23T19:31:52.659Z,88.73
2022-09-23T19:34:26.342Z,89.13
2022-09-23T19:36:57.555Z,89.50
2022-09-23T19:39:28.851Z,92.02
2022-09-23T19:41:57.584Z,98.49
2022-09-23T19:44:28.013Z,95.76
2022-09-23T19:46:57.538Z,93.90
2022-09-23T19:49:30.324Z,92.65
2022-09-23T19:51:59.412Z,94.48
2022-09-23T19:54:28.203Z,93.82
2022-09-23T19:56:56.941Z,94.64
2022-09-23T19:59:26.646Z,94.45
2022-09-23T20:01:55.339Z,95.36
2022-09-23T20:04:24.514Z,96.55
2022-09-23T20:06:54.985Z,95.81
2022-09-23T20:09:23.654Z,95.54
2022-09-23T20:11:52.553Z,96.94
2022-09-23T20:14:22.947Z,96.53
2022-09-23T20:16:52.402Z,96.25
2022-09-23T20:19:21.349Z,97.34
2022-09-23T20:22:10.219Z,97.43
2022-09-23T20:24:40.384Z,97.22
2022-09-23T20:27:11.626Z,96.20
2022-09-23T20:29:43.393Z,96.21
2022-09-23T20:32:12.854Z,95.71
2022-09-23T20:34:44.316Z,95.31
2022-09-23T20:37:13.430Z,96.07
2022-09-23T20:39:43.837Z,95.37
2022-09-23T20:42:14.101Z,95.44
2022-09-23T20:44:44.281Z,95.58
2022-09-23T20:47:14.576Z,96.11
2022-09-23T20:49:44.198Z,95.79
2022-09-23T20:52:14.084Z,95.35
2022-09-23T20:54:44.947Z,95.92
2022-09-23T20:57:15.002Z,96.33
2022-09-23T20:59:44.444Z,95.62
2022-09-23T21:02:13.646Z,95.57
2022-09-23T21:04:44.990Z,95.84
2022-09-23T21:07:13.518Z,96.38
2022-09-23T21:09:44.020Z,96.08
2022-09-23T21:12:12.383Z,96.28
2022-09-23T21:14:42.239Z,95.60
2022-09-23T21:17:10.688Z,96.25
2022-09-23T21:19:39.098Z,96.72
2022-09-23T21:22:07.586Z,96.62
2022-09-23T21:27:27.353Z,97.33
2022-09-23T21:29:56.025Z,98.33
2022-09-23T21:32:24.515Z,98.08
2022-09-23T21:34:53.027Z,98.51
2022-09-23T21:37:22.000Z,98.14
2022-09-23T21:40:11.139Z,97.85
2022-09-23T21:42:41.070Z,97.42
2022-09-23T21:45:10.166Z,97.76
2022-09-23T21:47:38.576Z,97.66
2022-09-23T21:50:08.290Z,97.98
2022-09-23T21:52:36.755Z,97.34
2022-09-23T21:55:05.464Z,97.26
2022-09-23T21:57:33.898Z,97.51
2022-09-23T22:00:04.181Z,97.48
2022-09-23T22:02:33.007Z,97.95
2022-09-23T22:05:02.163Z,98.57
2022-09-23T22:07:32.275Z,98.50
2022-09-23T22:10:00.761Z,98.42
2022-09-23T22:12:29.244Z,99.35
2022-09-23T22:14:57.790Z,100.00
2022-09-23T22:17:27.753Z,100.00
2022-09-23T22:19:56.170Z,100.00
2022-09-23T22:22:24.720Z,100.00
2022-09-23T22:24:53.318Z,100.00
2022-09-23T22:27:22.418Z,100.00
2022-09-23T22:30:08.117Z,100.00
2022-09-23T22:32:46.417Z,100.00
2022-09-23T22:35:18.010Z,100.00
2022-09-23T22:37:47.564Z,100.00
2022-09-23T22:40:17.619Z,100.00
2022-09-23T22:42:46.133Z,100.00
2022-09-23T22:45:14.752Z,100.00
2022-09-23T22:47:46.174Z,100.00
2022-09-23T22:50:15.522Z,100.00
2022-09-23T22:52:44.221Z,100.00
2022-09-23T22:55:13.122Z,100.00
2022-09-23T22:57:41.719Z,100.00
2022-09-23T23:00:12.423Z,100.00
2022-09-23T23:02:42.708Z,100.00
2022-09-23T23:05:14.738Z,100.00
2022-09-23T23:07:43.189Z,100.00
2022-09-23T23:10:11.712Z,100.00
2022-09-23T23:12:41.299Z,100.00
2022-09-23T23:15:12.720Z,100.00
2022-09-23T23:17:43.821Z,100.00
2022-09-23T23:20:13.731Z,100.00
2022-09-23T23:22:42.216Z,100.00
2022-09-23T23:25:11.096Z,100.00
2022-09-23T23:27:39.712Z,100.00
2022-09-23T23:30:09.731Z,100.00
2022-09-23T23:32:38.382Z,100.00
2022-09-23T23:35:07.626Z,100.00
2022-09-23T23:37:37.544Z,100.00
2022-09-23T23:40:06.938Z,100.00
2022-09-23T23:42:35.573Z,100.00
2022-09-23T23:45:04.073Z,100.00
2022-09-23T23:47:32.466Z,100.00
2022-09-23T23:50:00.899Z,100.00
2022-09-23T23:52:29.334Z,100.00
2022-09-23T23:54:59.109Z,100.00
2022-09-23T23:57:27.537Z,100.00
2022-09-23T23:59:55.933Z,100.00
